Flight Track Log - Related Links

Times and Time Zones

All times are in EDT time to prevent confusion due to time zone crossing. See the SWA2336 flight status page for this flight to view local times or setup timezone preferences in your user account.

Time Position Orientation Groundspeed Altitude Reporting Facility
EDT Latitude Longitude Course Direction KTS MPH feet Rate Location/Type
Sat 01:35:50 PM 39.6833 -86.3500 237° Southwest 171 197 2,900  Level Indianapolis TRACON
Sat 01:36:50 PM 39.6667 -86.4167 252° West 234 269 4,300 2,237 Climbing Indianapolis TRACON
Sat 01:37:48 PM 39.6469 -86.5003 253° West 260 299 7,300 3,227 Climbing Indianapolis Center
Sat 01:38:49 PM 39.6286 -86.5867 255° West 251 289 10,700 2,754 Climbing Indianapolis Center
Sat 01:39:50 PM 39.6075 -86.6886 255° West 264 304 12,900 2,585 Climbing Indianapolis Center
Sat 01:40:52 PM 39.6069 -86.8108 270° West 311 358 16,000 2,683 Climbing Indianapolis Center
Sat 01:41:53 PM 39.6078 -86.9333 271° West 326 375 18,400 2,557 Climbing Indianapolis Center
Sat 01:42:54 PM 39.6069 -87.0844 270° West 342 394 21,200 2,488 Climbing Indianapolis Center
Sat 01:43:56 PM 39.6064 -87.2183 270° West 364 419 23,500 2,098 Climbing Indianapolis Center
Sat 01:44:57 PM 39.6061 -87.3536 270° West 372 428 25,500 1,902 Climbing Indianapolis Center
Sat 01:45:59 PM 39.6047 -87.4931 269° West 384 442 27,400 1,951 Climbing Indianapolis Center
Sat 01:47:00 PM 39.6042 -87.6308 270° West 383 441 29,500 1,869 Climbing Indianapolis Center
Sat 01:48:01 PM 39.6025 -87.7692 269° West 382 440 31,200 1,707 Climbing Indianapolis Center
Sat 01:49:03 PM 39.6017 -87.9058 270° West 382 440 33,000 1,723 Climbing Indianapolis Center
Sat 01:49:35 PM 39.5997 -87.9889 268° West 378 435 33,900 638 Climbing Kansas City Center
Sat 01:50:37 PM 39.5981 -88.1228 269° West 374 430 34,000 49 Climbing Kansas City Center
Sat 01:51:38 PM 39.5961 -88.2569 269° West 371 427 34,000 242 Level Kansas City Center
Sat 01:52:41 PM 39.5936 -88.3922 269° West 373 429 34,500 726 Climbing Kansas City Center
Sat 01:53:42 PM 39.5903 -88.5253 268° West 371 427 35,500 738 Climbing Kansas City Center
Sat 01:54:43 PM 39.5869 -88.6681 268° West 383 441 36,000 240 Climbing Kansas City Center
Sat 01:55:47 PM 39.5833 -88.8069 268° West 386 444 36,000  Level Kansas City Center
Sat 01:56:47 PM 39.5800 -88.9469 268° West 386 444 36,000  Level Kansas City Center
Sat 01:57:49 PM 39.5758 -89.1114 268° West 383 441 36,000  Level Kansas City Center
Sat 01:58:52 PM 39.5717 -89.2503 268° West 384 442 36,000  Level Kansas City Center
Sat 01:59:53 PM 39.5681 -89.3797 268° West 382 440 36,000  Level Kansas City Center
Sat 02:00:54 PM 39.5636 -89.5178 268° West 384 442 36,000  Level Kansas City Center
Sat 02:01:56 PM 39.5606 -89.6556 268° West 385 443 36,000  Level Kansas City Center
Sat 02:02:59 PM 39.5542 -89.8225 267° West 388 447 36,000  Level Kansas City Center
Sat 02:04:02 PM 39.5494 -89.9614 268° West 389 448 36,000  Level Kansas City Center
Sat 02:05:02 PM 39.5450 -90.1000 268° West 388 447 36,000  Level Kansas City Center
Sat 02:06:06 PM 39.5386 -90.2367 267° West 386 444 36,000  Level Kansas City Center
Sat 02:07:06 PM 39.5347 -90.3750 268° West 386 444 36,000  Level Kansas City Center
Sat 02:08:06 PM 39.5297 -90.5119 267° West 385 443 36,000  Level Kansas City Center
Sat 02:09:11 PM 39.5225 -90.6742 267° West 380 437 36,000  Level Kansas City Center
Sat 02:10:11 PM 39.5167 -90.8081 267° West 377 434 36,000  Level Kansas City Center
Sat 02:11:12 PM 39.5119 -90.9422 267° West 376 433 36,000  Level Kansas City Center
Sat 02:12:16 PM 39.5058 -91.0750 267° West 373 429 36,000  Level Kansas City Center
Sat 02:13:17 PM 39.5000 -91.2089 267° West 374 430 36,000  Level Kansas City Center
Sat 02:14:18 PM 39.4928 -91.3439 266° West 376 433 36,000  Level Kansas City Center
Sat 02:15:21 PM 39.4856 -91.5064 267° West 378 435 36,000  Level Kansas City Center
Sat 02:16:23 PM 39.4786 -91.6428 266° West 380 437 36,000  Level Kansas City Center
Sat 02:17:25 PM 39.4731 -91.7658 267° West 383 441 36,000  Level Kansas City Center
Sat 02:18:25 PM 39.4642 -91.9336 266° West 388 447 36,000  Level Kansas City Center
Sat 02:19:28 PM 39.4575 -92.0733 267° West 390 449 36,000 195 Level Kansas City Center
Sat 02:20:28 PM 39.4492 -92.2133 266° West 390 449 36,400 726 Climbing Kansas City Center
Sat 02:21:32 PM 39.4481 -92.3525 269° West 390 449 37,500 720 Climbing Kansas City Center
Sat 02:22:33 PM 39.4464 -92.4950 269° West 393 452 37,900 246 Climbing Kansas City Center
Sat 02:23:34 PM 39.4458 -92.6411 270° West 398 458 38,000 49 Climbing Kansas City Center
Sat 02:24:35 PM 39.4433 -92.7872 269° West 403 464 38,000  Level Kansas City Center
Sat 02:25:36 PM 39.4417 -92.9611 269° West 404 465 38,000  Level Kansas City Center
Sat 02:26:40 PM 39.4389 -93.1069 269° West 406 467 38,000  Level Kansas City Center
Sat 02:27:40 PM 39.4375 -93.2528 269° West 407 468 38,000  Level Kansas City Center
Sat 02:28:44 PM 39.4356 -93.3972 269° West 405 466 38,000  Level Kansas City Center
Sat 02:29:46 PM 39.4333 -93.5417 269° West 403 464 38,000  Level Kansas City Center
Sat 02:30:47 PM 39.4303 -93.6856 268° West 401 461 38,000  Level Kansas City Center
Sat 02:31:47 PM 39.4275 -93.8375 269° West 397 457 38,000  Level Kansas City Center
Sat 02:32:51 PM 39.4239 -93.9981 268° West 401 461 38,000  Level Kansas City Center
Sat 02:33:52 PM 39.4211 -94.1350 269° West 401 461 38,000  Level Kansas City Center
Sat 02:34:55 PM 39.4181 -94.2956 269° West 402 463 38,000  Level Kansas City Center
Sat 02:35:56 PM 39.4139 -94.4339 268° West 403 464 38,000  Level Kansas City Center
Sat 02:36:58 PM 39.4097 -94.5961 268° West 405 466 38,000  Level Kansas City Center
Sat 02:38:00 PM 39.4056 -94.7358 268° West 406 467 38,000  Level Kansas City Center
Sat 02:39:00 PM 39.4006 -94.8956 268° West 400 460 38,000  Level Kansas City Center
Sat 02:40:04 PM 39.3972 -95.0322 268° West 400 460 38,000  Level Kansas City Center
Sat 02:41:04 PM 39.3922 -95.1869 268° West 401 461 38,000  Level Kansas City Center
Sat 02:42:06 PM 39.3875 -95.3414 268° West 400 460 38,000  Level Kansas City Center
Sat 02:43:10 PM 39.3833 -95.4853 268° West 401 461 38,000  Level Kansas City Center
Sat 02:44:11 PM 39.3778 -95.6197 267° West 394 453 38,000  Level Kansas City Center
Sat 02:45:13 PM 39.3722 -95.7783 267° West 397 457 38,000  Level Kansas City Center
Sat 02:46:15 PM 39.3658 -95.9169 267° West 403 464 38,000  Level Kansas City Center
Sat 02:47:15 PM 39.3608 -96.0753 268° West 396 456 38,000  Level Kansas City Center
Sat 02:48:17 PM 39.3525 -96.2211 266° West 397 457 38,000  Level Kansas City Center
Sat 02:49:19 PM 39.3472 -96.3650 267° West 400 460 38,000  Level Kansas City Center
Sat 02:50:21 PM 39.3403 -96.5111 267° West 404 465 38,000  Level Kansas City Center
Sat 02:51:23 PM 39.3358 -96.6503 268° West 405 466 38,000  Level Kansas City Center
Sat 02:52:25 PM 39.3278 -96.8133 266° West 407 468 38,000  Level Kansas City Center
Sat 02:53:26 PM 39.3214 -96.9531 267° West 407 468 38,000  Level Kansas City Center
Sat 02:54:27 PM 39.3131 -97.1178 266° West 411 473 38,000  Level Kansas City Center
Sat 02:55:30 PM 39.3067 -97.2581 267° West 410 472 38,000  Level Kansas City Center
Sat 02:56:31 PM 39.2986 -97.4217 266° West 410 472 38,000  Level Kansas City Center
Sat 02:57:34 PM 39.2931 -97.5681 267° West 407 468 38,000  Level Kansas City Center
Sat 02:58:35 PM 39.2853 -97.7122 266° West 402 463 38,000  Level Kansas City Center
Sat 02:59:38 PM 39.2781 -97.8564 266° West 403 464 38,000  Level Kansas City Center
Sat 03:00:39 PM 39.2678 -97.9953 265° West 399 459 38,000  Level Kansas City Center
Sat 03:01:39 PM 39.2589 -98.1536 266° West 397 457 38,000  Level Kansas City Center
Sat 03:02:43 PM 39.2539 -98.2856 267° West 402 463 38,000  Level Kansas City Center
Sat 03:03:45 PM 39.2433 -98.4589 266° West 402 463 38,000  Level Kansas City Center
Sat 03:04:08 PM 39.2392 -98.5175 265° West 402 463 38,000  Level Denver Center
Sat 03:05:10 PM 39.2306 -98.6622 266° West 402 463 38,000  Level Denver Center
Sat 03:06:11 PM 39.2222 -98.8081 266° West 406 467 38,000  Level Denver Center
Sat 03:07:13 PM 39.2108 -98.9583 264° West 404 465 38,000  Level Denver Center
Sat 03:08:14 PM 39.2022 -99.0969 265° West 405 466 38,000  Level Denver Center
Sat 03:09:16 PM 39.1922 -99.2569 265° West 402 463 38,000  Level Denver Center
Sat 03:10:17 PM 39.1836 -99.3894 265° West 402 463 38,000  Level Denver Center
Sat 03:11:19 PM 39.1722 -99.5478 265° West 400 460 38,000  Level Denver Center
Sat 03:12:21 PM 39.1633 -99.6847 265° West 401 461 38,000  Level Denver Center
Sat 03:13:22 PM 39.1519 -99.8408 265° West 395 455 38,000  Level Denver Center
Sat 03:14:24 PM 39.1414 -99.9775 264° West 399 459 38,000  Level Denver Center
Sat 03:15:25 PM 39.1308 -100.1219 265° West 402 463 38,000  Level Denver Center
Sat 03:16:27 PM 39.1203 -100.2575 264° West 402 463 38,000  Level Denver Center
Sat 03:17:28 PM 39.1083 -100.4186 265° West 404 465 38,000  Level Denver Center
Sat 03:18:30 PM 39.0975 -100.5558 264° West 403 464 38,000  Level Denver Center
Sat 03:19:31 PM 39.0850 -100.7189 264° West 408 470 38,000  Level Denver Center
Sat 03:20:33 PM 39.0739 -100.8572 264° West 407 468 38,000  Level Denver Center
Sat 03:21:34 PM 39.0622 -100.9944 264° West 406 467 38,000  Level Denver Center
Sat 03:22:36 PM 39.0500 -101.1583 265° West 408 470 38,000  Level Denver Center
Sat 03:23:37 PM 39.0378 -101.2944 263° West 402 463 38,000  Level Denver Center
Sat 03:24:39 PM 39.0250 -101.4408 264° West 399 459 38,000  Level Denver Center
Sat 03:25:40 PM 39.0114 -101.6008 264° West 403 464 38,000  Level Denver Center
Sat 03:26:42 PM 38.9994 -101.7375 264° West 403 464 38,000  Level Denver Center
Sat 03:27:43 PM 38.9872 -101.8739 263° West 402 463 38,000  Level Denver Center
Sat 03:28:44 PM 38.9728 -102.0353 263° West 408 470 38,000  Level Denver Center
Sat 03:29:46 PM 38.9589 -102.1728 263° West 407 468 38,000  Level Denver Center
Sat 03:30:47 PM 38.9447 -102.3325 264° West 406 467 38,000  Level Denver Center
Sat 03:31:49 PM 38.9319 -102.4694 263° West 405 466 38,000  Level Denver Center
Sat 03:32:50 PM 38.9161 -102.6300 263° West 407 468 38,000  Level Denver Center
Sat 03:33:52 PM 38.9031 -102.7625 263° West 407 468 38,000  Level Denver Center
Sat 03:34:53 PM 38.8894 -102.9083 263° West 408 470 38,000  Level Denver Center
Sat 03:35:54 PM 38.8758 -103.0547 263° West 409 471 38,000  Level Denver Center
Sat 03:36:56 PM 38.8606 -103.2017 262° West 411 473 38,000  Level Denver Center
Sat 03:37:57 PM 38.8450 -103.3486 262° West 412 474 38,000  Level Denver Center
Sat 03:38:59 PM 38.8275 -103.5128 262° West 411 473 38,000  Level Denver Center
Sat 03:40:00 PM 38.8131 -103.6494 262° West 405 466 38,000  Level Denver Center
Sat 03:41:02 PM 38.7864 -103.8072 258° West 404 465 38,000  Level Denver Center
Sat 03:42:03 PM 38.7631 -103.9433 258° West 408 470 38,000  Level Denver Center
Sat 03:43:04 PM 38.7367 -104.1000 258° West 404 465 38,000  Level Denver Center
Sat 03:44:06 PM 38.7147 -104.2372 258° West 408 470 38,000  Level Denver Center
Sat 03:45:07 PM 38.6892 -104.3814 257° West 410 472 38,000  Level Denver Center
Sat 03:46:09 PM 38.6650 -104.5244 258° West 407 468 38,000  Level Denver Center
Sat 03:47:10 PM 38.6403 -104.6667 257° West 407 468 38,000  Level Denver Center
Sat 03:48:12 PM 38.6147 -104.8103 257° West 409 471 38,000  Level Denver Center
Sat 03:49:13 PM 38.5892 -104.9556 257° West 412 474 38,000  Level Denver Center
Sat 03:50:14 PM 38.5631 -105.0997 257° West 413 475 38,000  Level Denver Center
Sat 03:51:16 PM 38.5369 -105.2433 257° West 412 474 38,000  Level Denver Center
Sat 03:52:17 PM 38.5114 -105.3889 257° West 414 476 38,000  Level Denver Center
Sat 03:53:18 PM 38.4853 -105.5317 257° West 411 473 38,000  Level Denver Center
Sat 03:54:20 PM 38.4586 -105.6753 257° West 411 473 38,000  Level Denver Center
Sat 03:55:21 PM 38.4292 -105.8336 257° West 417 480 38,000  Level Denver Center
Sat 03:56:23 PM 38.4019 -105.9806 257° West 410 472 38,000  Level Denver Center
Sat 03:57:24 PM 38.3769 -106.1158 257° West 411 473 38,000  Level Denver Center
Sat 03:58:26 PM 38.3492 -106.2569 256° West 408 470 38,000  Level Denver Center
Sat 03:59:27 PM 38.3228 -106.3989 257° West 409 471 38,000  Level Denver Center
Sat 04:00:28 PM 38.2928 -106.5558 256° West 411 473 38,000  Level Denver Center
Sat 04:01:30 PM 38.2667 -106.6889 256° West 407 468 38,000  Level Denver Center
Sat 04:02:31 PM 38.2367 -106.8433 256° West 405 466 38,000  Level Denver Center
Sat 04:03:32 PM 38.2133 -106.9633 256° West 408 470 38,000  Level Denver Center
Sat 04:04:34 PM 38.1797 -107.1286 256° West 408 470 38,000  Level Denver Center
Sat 04:05:35 PM 38.1531 -107.2708 257° West 413 475 38,000  Level Denver Center
Sat 04:06:37 PM 38.1256 -107.4050 255° West 411 473 38,000  Level Denver Center
Sat 04:07:38 PM 38.0942 -107.5625 256° West 411 473 38,000  Level Denver Center
Sat 04:08:39 PM 38.0656 -107.7042 256° West 406 467 38,000  Level Denver Center
Sat 04:09:41 PM 38.0383 -107.8361 255° West 405 466 38,000  Level Denver Center
Sat 04:10:42 PM 38.0108 -107.9678 255° West 404 465 38,000  Level Denver Center
Sat 04:11:43 PM 37.9794 -108.1225 256° West 407 468 38,000  Level Denver Center
Sat 04:12:45 PM 37.9522 -108.2572 256° West 411 473 38,000  Level Denver Center
Sat 04:13:46 PM 37.9194 -108.4097 255° West 405 466 38,000  Level Denver Center
Sat 04:14:47 PM 37.8911 -108.5442 255° West 410 472 38,000  Level Denver Center
Sat 04:15:49 PM 37.8631 -108.6786 255° West 412 474 38,000  Level Denver Center
Sat 04:16:50 PM 37.8292 -108.8347 255° West 414 476 38,000  Level Denver Center
Sat 04:17:51 PM 37.7997 -108.9664 254° West 410 472 38,000  Level Denver Center
Sat 04:18:53 PM 37.7614 -109.1194 252° West 410 472 38,000  Level Denver Center
Sat 04:19:54 PM 37.7292 -109.2514 253° West 410 472 38,000  Level Denver Center
Sat 04:20:56 PM 37.6969 -109.3803 253° West 405 466 38,000  Level Denver Center
Sat 04:21:57 PM 37.6597 -109.5281 252° West 397 457 38,000  Level Denver Center
Sat 04:22:58 PM 37.6275 -109.6558 252° West 398 458 38,000  Level Denver Center
Sat 04:24:00 PM 37.5906 -109.8019 252° West 394 453 38,000  Level Denver Center
Sat 04:25:01 PM 37.5581 -109.9308 252° West 400 460 38,000  Level Denver Center
Sat 04:26:03 PM 37.5256 -110.0581 252° West 399 459 38,000  Level Denver Center
Sat 04:28:05 PM 37.4536 -110.3369 252° West 400 460 38,000 -228 Level Denver Center
Sat 04:29:07 PM 37.4186 -110.4692 252° West 399 459 37,300 -829 Descending Denver Center
Sat 04:30:08 PM 37.3842 -110.6047 252° West 407 468 36,300 -927 Descending Denver Center
Sat 04:31:10 PM 37.3486 -110.7408 252° West 409 471 35,400 -829 Descending Denver Center
Sat 04:32:11 PM 37.3186 -110.8503 251° West 412 474 34,600 -1,131 Descending Denver Center
Sat 04:33:12 PM 37.2736 -111.0239 252° West 377 434 33,100 -1,180 Descending Denver Center
Sat 04:34:13 PM 37.2414 -111.1419 251° West 363 418 32,200 -537 Descending Denver Center
Sat 04:35:15 PM 37.2092 -111.2614 251° West 360 414 32,000 -98 Descending Denver Center
Sat 04:36:16 PM 37.1761 -111.3825 251° West 365 420 32,000  Level Denver Center
Sat 04:37:17 PM 37.1439 -111.5028 251° West 366 421 32,000  Level Denver Center
Sat 04:38:19 PM 37.1133 -111.6219 252° West 360 414 32,000  Level Denver Center
Sat 04:39:20 PM 37.0814 -111.7419 252° West 361 415 32,000  Level Denver Center
Sat 04:40:21 PM 37.0469 -111.8647 251° West 369 425 32,000  Level Denver Center
Sat 04:41:22 PM 37.0111 -111.9875 250° West 372 428 32,000  Level Denver Center
Sat 04:42:24 PM 36.9844 -112.1128 255° West 374 430 32,000  Level Denver Center
Sat 04:42:52 PM 36.9686 -112.1878 255° West 367 422 32,000  Level Los Angeles Center
Sat 04:43:54 PM 36.9442 -112.3125 256° West 368 423 32,000  Level Los Angeles Center
Sat 04:44:56 PM 36.9186 -112.4394 256° West 373 429 32,000  Level Los Angeles Center
Sat 04:45:58 PM 36.8939 -112.5628 256° West 368 423 32,000  Level Los Angeles Center
Sat 04:47:00 PM 36.8683 -112.6892 256° West 371 427 32,000  Level Los Angeles Center
Sat 04:48:02 PM 36.8369 -112.8403 255° West 374 430 32,000  Level Los Angeles Center
Sat 04:49:04 PM 36.8111 -112.9644 255° West 370 426 32,000  Level Los Angeles Center
Sat 04:50:06 PM 36.7856 -113.0897 256° West 372 428 32,000  Level Los Angeles Center
Sat 04:51:08 PM 36.7533 -113.2144 252° West 377 434 32,000 -48 Level Los Angeles Center
Sat 04:52:10 PM 36.7175 -113.3400 250° West 383 441 31,900 -1,210 Descending Los Angeles Center
Sat 04:53:12 PM 36.6836 -113.4636 251° West 379 436 29,500 -2,226 Descending Los Angeles Center
Sat 04:54:14 PM 36.6500 -113.5839 251° West 370 426 27,300 -2,274 Descending Los Angeles Center
Sat 04:55:16 PM 36.6108 -113.7203 250° West 352 405 24,800 -2,177 Descending Los Angeles Center
Sat 04:56:18 PM 36.5803 -113.8336 251° West 347 399 22,800 -1,984 Descending Los Angeles Center
Sat 04:57:20 PM 36.5478 -113.9472 250° West 349 402 20,700 -1,984 Descending Los Angeles Center
Sat 04:58:22 PM 36.5158 -114.0597 251° West 346 398 18,700 -2,075 Descending Los Angeles Center
Sat 04:59:07 PM 36.4908 -114.1494 251° West 340 391 17,000 -2,032 Descending Los Angeles Center
Sat 04:59:24 PM 36.4828 -114.1756 249° West 337 388 16,600 -2,000 Descending Los Angeles Center
Sat 04:59:49 PM 36.4708 -114.2342 256° West 342 394 15,600 -1,905 Descending Los Angeles Center
Sat 05:00:27 PM 36.4508 -114.2833 243° Southwest 333 383 14,600 -1,964 Descending Los Angeles Center
Sat 05:00:44 PM 36.4419 -114.3269 256° West 331 381 13,800 -1,839 Descending Los Angeles Center
Sat 05:01:29 PM 36.4203 -114.3919 248° West 334 384 12,700 -1,770 Descending Los Angeles Center
Sat 05:01:45 PM 36.4103 -114.4369 255° West 330 380 12,000 -677 Descending Los Angeles Center
Sat 05:02:31 PM 36.3886 -114.4964 246° West 326 375 12,000 -197 Level Los Angeles Center
Sat 05:02:46 PM 36.3683 -114.5397 240° Southwest 331 381 11,800 -871 Descending Los Angeles Center
Sat 05:03:33 PM 36.3325 -114.6139 239° Southwest 328 377 11,100 -991 Descending Los Angeles Center
Sat 05:04:35 PM 36.2867 -114.7128 240° Southwest 330 380 10,000 -489 Descending Los Angeles Center
Sat 05:05:48 PM 36.2331 -114.8283 240° Southwest 311 358 10,000 -387 Level Los Angeles Center
Sat 05:06:39 PM 36.2008 -114.8953 239° Southwest 297 342 9,200 -956 Descending Los Angeles Center
Sat 05:07:41 PM 36.1622 -114.9775 240° Southwest 279 321 8,200 -545 Descending Los Angeles Center
Sat 05:08:51 PM 36.1086 -115.0697 234° Southwest 240 276 8,000 -97 Descending Los Angeles Center
Sat 05:09:45 PM 36.0683 -115.0856 198° South 223 257 8,000 -414 Level Los Angeles Center
Sat 05:10:47 PM 36.0075 -115.1139 201° Southwest 198 228 7,200 -938 Descending Los Angeles Center
Sat 05:11:53 PM 35.9611 -115.1556 216° Southwest 197 227 6,000 -878 Descending Los Angeles Center
Sat 05:12:50 PM 35.9578 -115.2094 266° West 195 224 5,400 -555 Descending Los Angeles Center
Sat 05:13:52 PM 35.9983 -115.2192 349° North 184 212 4,900 -1,210 Descending Los Angeles Center
Sat 05:14:54 PM 36.0439 -115.1828 33° Northeast 173 199 2,900 3,435 Descending Los Angeles Center
Sat 05:15:56 PM 36.0811 -115.1633 23° Northeast 161 185 12,000 8,806 Climbing Los Angeles Center
Sat 05:17:00 PM 36.0801 -115.1523 219° Southwest  Level Estimated
Sat 05:24:00 PM 36.0801 -115.1523 219° Southwest  Level Estimated

Login

Don't have an account? Register now (free) for customized features, flight alerts, and more!